Pahrump, Nevada Weather observations

Data are for observation ending at time listed.
 Day   Time    Ave.   Ave.  Ave.  Vector   Max.   Stn.    Total    Solar   Ave.  
  of    of     Air    Rel.  Wind   Wind    Wind   Baro.  Precip.   Rad.    Soil  
Year   Day     Temp.  Hum.  Speed  Dir.    Gust   Pres.                    Temp. 
2015   (PST)    F      %     mph   deg.    mph     mb.     in.     W/m2     F   
------------------------------------------------------------------------------
  29   11:40   55.9    68    4.8   180      8.3   926.5    0.00     231    52.5
  29   11:50   56.2    66    5.5   165      8.7   926.3    0.00     227    52.7
  29   12:00   56.3    65    4.6   170      7.2   926.2    0.00     274    52.8
  29   12:10   56.8    62    2.8   181      6.3   926.0    0.00     300    52.8
  29   12:20   58.2    58    1.1   232      4.2   925.8    0.00     312    53.0
  29   12:30   59.0    56    1.0   131      3.1   925.6    0.00     333    53.1
  29   12:40   58.6    56    2.7   152      5.3   925.6    0.00     339    53.3
  29   12:50   59.0    54    1.7   128      3.1   925.5    0.00     330    53.5
  29   13:00   59.0    56    2.8   170      4.6   925.4    0.00     332    53.8
  29   13:10   59.2    54    2.4   165      5.5   925.3    0.00     375    54.0
  29   13:20   59.6    54    2.3   170      5.0   925.2    0.00     379    54.1
  29   13:30   59.8    53    2.2   185      5.6   925.0    0.00     403    54.3
  29   13:40   60.5    52    1.5   196      3.7   924.9    0.00     433    54.5
  29   13:50   61.0    50    2.4   145      3.9   924.8    0.00     408    54.6
  29   14:00   61.1    50    0.9   163      2.3   924.5    0.00     299    54.7
  29   14:10   61.6    46    1.2   105      2.6   924.3    0.00     328    54.8
  29   14:20   62.0    45    1.3   116      2.9   924.2    0.00     518    54.8
  29   14:30   62.2    45    1.6    78      3.1   924.0    0.00     325    54.9
  29   14:40   62.1    44    1.0   128      2.5   923.9    0.00     238    54.9
  29   14:50   62.2    44    1.3   117      2.6   923.8    0.00     337    55.0
  29   15:00   62.4    44    1.4   116      2.8   923.7    0.00     312    55.0
  29   15:10   62.6    44    1.0   126      2.6   923.6    0.00     221    55.0
  29   15:20   62.8    44    1.2   213      3.4   923.5    0.00     139    54.9
  29   15:30   62.3    44    3.1   167      5.0   923.4    0.00     123    54.9
  29   15:40   62.2    45    7.1   169     11.0   923.4    0.00     111    54.9
  29   15:50   62.0    45    8.3   162     12.3   923.5    0.00      94    54.8
  29   16:00   61.7    46    7.5   169     12.0   923.6    0.00      91    54.7
  29   16:10   61.6    47    6.5   155     10.4   923.6    0.00      76    54.6
  29   16:20   61.5    47    6.5   149     10.6   923.6    0.00      57    54.5
  29   16:30   61.2    48    7.0   141     11.3   923.6    0.00      47    54.4
  29   16:40   61.1    48    7.4   154     10.7   923.6    0.00      39    54.3
  29   16:50   60.9    48    7.2   150     10.4   923.6    0.00      19    54.2
  29   17:00   60.6    49    7.5   142     11.4   923.7    0.00       7    54.1
  29   17:10   60.3    49    6.5   142     10.2   923.7    0.00       2    54.0
  29   17:20   60.0    51    5.9   142      8.3   923.8    0.00       0    53.9
  29   17:30   59.6    53    5.4   149      9.3   923.8    0.00       0    53.8
  29   17:40   59.5    53    5.7   154      8.8   923.7    0.00       0    53.7
  29   17:50   59.4    54    5.4   158      7.7   923.6    0.00       0    53.6
  29   18:00   59.3    54    4.6   158      9.1   923.5    0.00       0    53.5
  29   18:10   59.3    53    3.4   157      5.3   923.5    0.00       0    53.5
  29   18:20   59.1    54    2.6   146      4.3   923.5    0.00       0    53.4
  29   18:30   58.7    55    2.8   151      4.2   923.5    0.00       0    53.3
  29   18:40   58.3    57    2.5   135      3.8   923.5    0.00       0    53.3
  29   18:50   57.7    59    2.7   140      4.5   923.3    0.00       0    53.2
  29   19:00   57.5    58    2.1   157      3.3   923.2    0.00       0    53.1
  29   19:10   57.5    58    2.3   167      4.2   923.2    0.00       0    53.0
  29   19:20   57.0    61    2.1   166      3.4   923.2    0.00       0    53.0
  29   19:30   56.3    64    1.3   323      3.6   923.2    0.00       0    52.9
  29   19:40   54.7    70    1.2   320      2.9   923.2    0.00       0    52.8
  29   19:50   54.6    68    2.1   332      4.3   923.1    0.00       0    52.7
  29   20:00   54.5    69    2.4   347      4.2   923.0    0.00       0    52.6
  29   20:10   55.2    66    1.7    49      3.2   923.0    0.00       0    52.6
  29   20:20   54.9    68    2.4    51      3.8   922.9    0.00       0    52.5
  29   20:30   54.6    67    1.8    44      2.9   922.9    0.00       0    52.5
  29   20:40   55.0    64    1.3    86      2.3   922.7    0.00       0    52.4
  29   20:50   55.3    64    0.7    63      1.8   922.8    0.00       0    52.4
  29   21:00   54.9    66    0.6   264      1.7   922.9    0.00       0    52.4
  29   21:10   54.4    70    1.8   298      4.2   923.0    0.00       0    52.3
  29   21:20   53.8    71    1.3   334      3.2   923.0    0.00       0    52.3
  29   21:30   54.2    69    1.0   326      2.8   923.1    0.00       0    52.3
  29   21:40   54.1    70    1.5     3      3.5   923.2    0.00       0    52.3
  29   21:50   53.9    71    1.2   332      2.6   923.3    0.00       0    52.2
  29   22:00   53.8    74    1.0   274      2.3   923.3    0.00       0    52.2
  29   22:10   53.5    76    1.1     6      2.2   923.2    0.00       0    52.2
  29   22:20   53.5    77    1.0    25      2.3   923.2    0.00       0    52.2
  29   22:30   53.5    76    1.9    38      3.7   923.3    0.00       0    52.2
  29   22:40   53.5    75    1.2   288      2.7   923.3    0.00       0    52.2
  29   22:50   53.4    75    2.2   300      4.8   923.4    0.00       0    52.2
  29   23:00   53.2    74    3.4   329      5.3   923.3    0.00       0    52.2
  29   23:10   53.3    74    2.3   102      5.0   923.4    0.00       0    52.1
  29   23:20   53.5    72    1.6    79      4.2   923.3    0.00       0    52.1
  29   23:30   53.6    73    2.1    56      3.7   923.3    0.00       0    52.1
  29   23:40   54.1    69    3.0    51      4.8   923.1    0.00       0    52.1
  29   23:50   54.7    66    2.3    31      3.8   922.9    0.00       0    52.1
  30    0:00   54.5    68    4.3    46      6.6   922.9    0.00       0    52.0
  30    0:10   54.3    68    4.4    48      7.0   922.8    0.00       0    52.0
  30    0:20   54.2    69    2.2     9      5.3   922.6    0.00       0    52.0
  30    0:30   53.7    72    2.4   324      4.1   922.4    0.00       0    51.9
  30    0:40   53.5    71    2.5     3      5.3   922.3    0.00       0    51.9
  30    0:50   53.3    72    3.6   356      5.3   922.1    0.00       0    51.9
  30    1:00   53.1    73    3.2     8      5.3   921.9    0.00       0    51.8
  30    1:10   53.2    72    4.2   359      6.9   921.7    0.00       0    51.8
  30    1:20   53.4    72    2.7    20      5.8   921.6    0.00       0    51.8
  30    1:30   53.5    69    3.9     5      7.7   921.7    0.00       0    51.7
  30    1:40   53.8    68    2.8   338      5.3   921.7    0.00       0    51.7
  30    1:50   53.3    71    0.9   305      3.0   921.6    0.00       0    51.7
  30    2:00   52.7    72    0.8   225      1.8   921.4    0.00       0    51.6
  30    2:10   52.4    73    1.3   190      2.3   921.3    0.00       0    51.5
  30    2:20   52.6    72    1.8   190      2.8   921.2    0.00       0    51.5
  30    2:30   52.6    72    1.5   174      2.0   921.1    0.00       0    51.5
  30    2:40   52.5    74    2.0   127      3.0   920.9    0.00       0    51.4
  30    2:50   52.5    72    0.9    37      3.1   920.7    0.00       0    51.4
  30    3:00   53.0    69    0.7   112      2.2   920.4    0.00       0    51.4
  30    3:10   52.7    70    1.8   205      2.6   920.3    0.00       0    51.3
  30    3:20   52.8    70    1.9   189      3.7   920.1    0.00       0    51.3
  30    3:30   52.6    71    1.7   235      3.1   920.1    0.00       0    51.3
  30    3:40   52.5    70    1.6   249      3.9   919.8    0.00       0    51.3
  30    3:50   52.8    67    2.6   250      7.2   919.7    0.00       0    51.2
  30    4:00   52.8    68    2.4   194      4.6   919.6    0.00       0    51.2
  30    4:10   52.7    68    2.1   178      4.8   919.4    0.00       0    51.2
  30    4:20   52.9    67    1.6   199      3.1   919.3    0.00       0    51.1
  30    4:30   52.9    67    2.0   167      3.6   919.3    0.00       0    51.1
  30    4:40   52.8    69    1.3   273      2.9   919.4    0.00       0    51.1
  30    4:50   52.1    73    2.5   130      5.8   919.5    0.00       0    51.1
  30    5:00   51.8    74    4.3   134      5.7   919.5    0.00       0    51.1
  30    5:10   51.7    76    5.1   128      7.2   919.5    0.00       0    51.0
  30    5:20   51.7    77    3.9   139      5.8   919.4    0.00       0    51.0
  30    5:30   51.7    77    3.9   153      6.1   919.2    0.00       0    51.0
  30    5:40   51.9    77    4.5   175      7.0   919.1    0.00       0    51.0
  30    5:50   51.8    76    5.5   177      8.2   919.2    0.00       0    51.0
  30    6:00   51.7    75    3.4   198      6.2   919.3    0.00       0    51.0
  30    6:10   51.5    76    3.2   193      6.3   919.2    0.00       0    51.0
  30    6:20   51.7    76    3.7   171      5.2   919.1    0.00       0    50.9
  30    6:30   51.5    77    2.0   237      4.2   919.1    0.00       0    50.9
  30    6:40   50.7    79    1.0   295      2.4   919.1    0.00       0    50.9
  30    6:50   50.5    79    0.6   131      1.6   919.1    0.00       0    50.9
  30    7:00   50.6    80    1.1    96      2.2   919.1    0.00       0    50.8
  30    7:10   50.4    82    2.0    61      3.1   919.0    0.00       3    50.8
  30    7:20   50.2    83    2.2    98      3.2   919.0    0.00       7    50.8
  30    7:30   50.3    83    2.3    98      3.4   919.0    0.00      10    50.8
  30    7:40   50.3    83    1.4    66      3.1   918.9    0.00      13    50.7
  30    7:50   50.4    81    1.3   145      3.3   918.9    0.00      19    50.7
  30    8:00   50.7    82    3.3   126      4.9   918.8    0.00      22    50.7
  30    8:10   50.9    82    4.2   129      5.8   918.8    0.00      29    50.7
  30    8:20   51.3    79    5.2   140      6.6   918.8    0.00      33    50.8
  30    8:30   51.5    78    3.3   144      5.9   918.8    0.00      33    50.8
  30    8:40   51.6    77    1.5   198      3.3   918.8    0.00      35    50.8
  30    8:50   51.6    78    1.1   230      3.0   918.7    0.00      41    50.8
  30    9:00   51.5    79    1.3   258      3.0   918.6    0.00      49    50.8
  30    9:10   51.6    80    1.6   266      3.1   918.6    0.00      51    50.9
  30    9:20   51.1    81    1.6   209      3.9   918.6    0.00      52    50.9
  30    9:30   51.1    80    3.1   192      6.4   918.6    0.00      55    50.9
  30    9:40   51.4    80    1.7   234      3.1   918.7    0.00      54    51.0
  30    9:50   51.4    80    2.1   210      4.5   918.8    0.00      62    51.0
  30   10:00   51.3    80    2.6   205      6.1   918.8    0.00      64    51.0
  30   10:10   51.3    82    3.2   186      5.6   918.7    0.00      69    51.1
  30   10:20   51.2    81    4.8   189      7.8   918.6    0.00      71    51.1
  30   10:30   51.1    82    3.7   202      7.2   918.5    0.00      70    51.1
  30   10:40   51.1    83    4.7   190      7.6   918.4    0.00      71    51.2
  30   10:50   51.1    84    5.8   184     10.7   918.3    0.00      80    51.2
  30   11:00   51.1    85    5.6   178      9.9   918.2    0.00      83    51.2
  30   11:10   51.0    86    6.1   175     10.4   918.1    0.00      89    51.2
  30   11:20   51.0    86    4.5   186      7.5   918.0    0.00      96    51.2
  30   11:30   51.1    86    4.2   178      8.8   917.9    0.00      94    51.3

Return to Pahrump, Nevada graphs page.


Western Regional Climate Center,wrcc@dri.edu